sensor_id;sensor_type;location;lat;lon;timestamp;temperature;humidity
25140;DHT22;39015;48.106;-1.682;2023-02-25T18:26:16;13.70;65.90
25140;DHT22;39015;48.106;-1.682;2023-02-25T18:28:44;13.70;66.00
25140;DHT22;39015;48.106;-1.682;2023-02-25T18:31:12;13.70;66.00
25140;DHT22;39015;48.106;-1.682;2023-02-25T18:33:42;13.70;66.00
25140;DHT22;39015;48.106;-1.682;2023-02-25T18:36:16;13.70;66.00
25140;DHT22;39015;48.106;-1.682;2023-02-25T18:38:45;13.60;66.00
25140;DHT22;39015;48.106;-1.682;2023-02-25T18:41:14;13.60;66.00
25140;DHT22;39015;48.106;-1.682;2023-02-25T18:43:41;13.70;66.10
25140;DHT22;39015;48.106;-1.682;2023-02-25T18:46:09;13.60;66.00
25140;DHT22;39015;48.106;-1.682;2023-02-25T18:48:39;13.60;65.90
25140;DHT22;39015;48.106;-1.682;2023-02-25T18:51:10;13.60;65.90
25140;DHT22;39015;48.106;-1.682;2023-02-25T18:53:39;13.60;65.90
25140;DHT22;39015;48.106;-1.682;2023-02-25T18:56:06;13.60;65.90
25140;DHT22;39015;48.106;-1.682;2023-02-25T18:58:35;13.60;66.00
25140;DHT22;39015;48.106;-1.682;2023-02-25T19:01:05;13.60;65.90
25140;DHT22;39015;48.106;-1.682;2023-02-25T19:03:35;13.60;65.80
25140;DHT22;39015;48.106;-1.682;2023-02-25T19:06:04;13.60;65.80
25140;DHT22;39015;48.106;-1.682;2023-02-25T19:08:32;13.60;65.80
25140;DHT22;39015;48.106;-1.682;2023-02-25T19:11:05;13.60;65.80
25140;DHT22;39015;48.106;-1.682;2023-02-25T19:13:37;13.60;65.70
25140;DHT22;39015;48.106;-1.682;2023-02-25T19:16:08;13.60;65.80
25140;DHT22;39015;48.106;-1.682;2023-02-25T19:18:41;13.60;65.80
25140;DHT22;39015;48.106;-1.682;2023-02-25T19:21:13;13.60;65.90
25140;DHT22;39015;48.106;-1.682;2023-02-25T19:23:42;13.60;65.80
25140;DHT22;39015;48.106;-1.682;2023-02-25T19:26:16;13.60;65.80
25140;DHT22;39015;48.106;-1.682;2023-02-25T19:28:49;13.60;65.90
25140;DHT22;39015;48.106;-1.682;2023-02-25T19:31:17;13.50;65.80
25140;DHT22;39015;48.106;-1.682;2023-02-25T19:33:52;13.50;65.90
25140;DHT22;39015;48.106;-1.682;2023-02-25T19:36:19;13.50;65.80
25140;DHT22;39015;48.106;-1.682;2023-02-25T19:38:49;13.50;66.00
25140;DHT22;39015;48.106;-1.682;2023-02-25T19:41:20;13.50;66.10
25140;DHT22;39015;48.106;-1.682;2023-02-25T19:43:48;13.50;66.00
25140;DHT22;39015;48.106;-1.682;2023-02-25T19:46:15;13.50;66.00
25140;DHT22;39015;48.106;-1.682;2023-02-25T19:48:43;13.50;66.10
25140;DHT22;39015;48.106;-1.682;2023-02-25T19:51:10;13.50;66.10
25140;DHT22;39015;48.106;-1.682;2023-02-25T19:53:37;13.50;66.10
25140;DHT22;39015;48.106;-1.682;2023-02-25T19:56:04;13.50;66.10
25140;DHT22;39015;48.106;-1.682;2023-02-25T19:58:32;13.50;66.20
25140;DHT22;39015;48.106;-1.682;2023-02-25T20:01:06;13.50;66.30
25140;DHT22;39015;48.106;-1.682;2023-02-25T20:03:35;13.40;66.20
25140;DHT22;39015;48.106;-1.682;2023-02-25T20:06:06;13.40;66.30
25140;DHT22;39015;48.106;-1.682;2023-02-25T20:08:34;13.40;66.20
25140;DHT22;39015;48.106;-1.682;2023-02-25T20:11:01;13.40;66.40
25140;DHT22;39015;48.106;-1.682;2023-02-25T20:13:28;13.40;66.40
25140;DHT22;39015;48.106;-1.682;2023-02-25T20:15:59;13.40;66.50
25140;DHT22;39015;48.106;-1.682;2023-02-25T20:18:28;13.40;66.50
25140;DHT22;39015;48.106;-1.682;2023-02-25T20:20:55;13.40;66.50
25140;DHT22;39015;48.106;-1.682;2023-02-25T20:23:22;13.40;66.60
25140;DHT22;39015;48.106;-1.682;2023-02-25T20:25:50;13.40;66.60
25140;DHT22;39015;48.106;-1.682;2023-02-25T20:28:17;13.40;66.70
25140;DHT22;39015;48.106;-1.682;2023-02-25T20:30:47;13.40;66.60
25140;DHT22;39015;48.106;-1.682;2023-02-25T20:33:14;13.40;66.60
25140;DHT22;39015;48.106;-1.682;2023-02-25T20:35:44;13.30;66.60
25140;DHT22;39015;48.106;-1.682;2023-02-25T20:38:16;13.30;66.70
25140;DHT22;39015;48.106;-1.682;2023-02-25T20:40:48;13.30;66.80
25140;DHT22;39015;48.106;-1.682;2023-02-25T20:43:22;13.30;66.80
25140;DHT22;39015;48.106;-1.682;2023-02-25T20:45:52;13.30;66.80
25140;DHT22;39015;48.106;-1.682;2023-02-25T20:48:25;13.30;66.70
25140;DHT22;39015;48.106;-1.682;2023-02-25T20:50:59;13.30;66.70
25140;DHT22;39015;48.106;-1.682;2023-02-25T20:53:27;13.30;66.70
25140;DHT22;39015;48.106;-1.682;2023-02-25T20:55:56;13.30;66.80
25140;DHT22;39015;48.106;-1.682;2023-02-25T20:58:23;13.30;66.80
25140;DHT22;39015;48.106;-1.682;2023-02-25T21:00:50;13.30;66.70
25140;DHT22;39015;48.106;-1.682;2023-02-25T21:03:17;13.30;66.80
25140;DHT22;39015;48.106;-1.682;2023-02-25T21:05:45;13.30;66.60
25140;DHT22;39015;48.106;-1.682;2023-02-25T21:08:14;13.30;66.60
25140;DHT22;39015;48.106;-1.682;2023-02-25T21:10:41;13.30;66.60
25140;DHT22;39015;48.106;-1.682;2023-02-25T21:13:09;13.30;66.80
25140;DHT22;39015;48.106;-1.682;2023-02-25T21:15:36;13.30;66.80
25140;DHT22;39015;48.106;-1.682;2023-02-25T21:18:03;13.30;66.80
25140;DHT22;39015;48.106;-1.682;2023-02-25T21:20:30;13.20;66.80
25140;DHT22;39015;48.106;-1.682;2023-02-25T21:22:58;13.30;66.80
25140;DHT22;39015;48.106;-1.682;2023-02-25T21:25:29;13.30;66.80
25140;DHT22;39015;48.106;-1.682;2023-02-25T21:27:59;13.20;66.70
25140;DHT22;39015;48.106;-1.682;2023-02-25T21:30:31;13.20;66.70
25140;DHT22;39015;48.106;-1.682;2023-02-25T21:33:01;13.30;66.80
25140;DHT22;39015;48.106;-1.682;2023-02-25T21:35:35;13.20;66.80
25140;DHT22;39015;48.106;-1.682;2023-02-25T21:38:08;13.20;66.90
25140;DHT22;39015;48.106;-1.682;2023-02-25T21:40:42;13.20;66.90
25140;DHT22;39015;48.106;-1.682;2023-02-25T21:43:13;13.20;66.80
25140;DHT22;39015;48.106;-1.682;2023-02-25T21:45:40;13.20;66.90
25140;DHT22;39015;48.106;-1.682;2023-02-25T21:48:08;13.20;66.80
25140;DHT22;39015;48.106;-1.682;2023-02-25T21:50:35;13.20;66.70
25140;DHT22;39015;48.106;-1.682;2023-02-25T21:53:03;13.20;66.70
25140;DHT22;39015;48.106;-1.682;2023-02-25T21:55:30;13.20;67.70
25140;DHT22;39015;48.106;-1.682;2023-02-25T21:57:59;13.20;66.80
25140;DHT22;39015;48.106;-1.682;2023-02-25T22:00:27;13.20;66.90
25140;DHT22;39015;48.106;-1.682;2023-02-25T22:02:54;13.10;66.90
25140;DHT22;39015;48.106;-1.682;2023-02-25T22:05:21;13.10;66.90
25140;DHT22;39015;48.106;-1.682;2023-02-25T22:07:48;13.10;66.80
25140;DHT22;39015;48.106;-1.682;2023-02-25T22:10:15;13.10;66.80
25140;DHT22;39015;48.106;-1.682;2023-02-25T22:12:43;13.10;66.90
25140;DHT22;39015;48.106;-1.682;2023-02-25T22:15:11;13.10;66.90
25140;DHT22;39015;48.106;-1.682;2023-02-25T22:17:38;13.10;66.90
25140;DHT22;39015;48.106;-1.682;2023-02-25T22:20:06;13.10;66.80
25140;DHT22;39015;48.106;-1.682;2023-02-25T22:22:33;13.10;66.80
25140;DHT22;39015;48.106;-1.682;2023-02-25T22:25:02;13.10;67.00
25140;DHT22;39015;48.106;-1.682;2023-02-25T22:27:30;13.10;66.90
25140;DHT22;39015;48.106;-1.682;2023-02-25T22:29:57;13.10;66.90
25140;DHT22;39015;48.106;-1.682;2023-02-25T22:32:26;13.10;66.90
25140;DHT22;39015;48.106;-1.682;2023-02-25T22:34:53;13.10;66.90
25140;DHT22;39015;48.106;-1.682;2023-02-25T22:37:20;13.10;66.90
25140;DHT22;39015;48.106;-1.682;2023-02-25T22:39:47;13.10;66.90
25140;DHT22;39015;48.106;-1.682;2023-02-25T22:42:14;13.00;66.80
25140;DHT22;39015;48.106;-1.682;2023-02-25T22:44:41;13.00;66.80
25140;DHT22;39015;48.106;-1.682;2023-02-25T22:47:08;13.00;66.80
25140;DHT22;39015;48.106;-1.682;2023-02-25T22:49:36;13.00;66.80
25140;DHT22;39015;48.106;-1.682;2023-02-25T22:52:03;13.00;66.80
25140;DHT22;39015;48.106;-1.682;2023-02-25T22:54:30;13.00;66.80
25140;DHT22;39015;48.106;-1.682;2023-02-25T22:56:57;13.00;66.80
25140;DHT22;39015;48.106;-1.682;2023-02-25T22:59:24;13.00;66.70
25140;DHT22;39015;48.106;-1.682;2023-02-25T23:01:51;13.00;67.60
25140;DHT22;39015;48.106;-1.682;2023-02-25T23:04:18;13.00;66.80
25140;DHT22;39015;48.106;-1.682;2023-02-25T23:06:47;12.90;66.70
25140;DHT22;39015;48.106;-1.682;2023-02-25T23:09:15;12.90;66.80
25140;DHT22;39015;48.106;-1.682;2023-02-25T23:11:42;12.90;66.80
